TAM3900 SBSP-SBRJ
Flight info
| Callsign | TAM3900 |
|---|---|
| Flight time | 0h 37m |
| Altitude | 29000 |
| Route | NIBRU UZ171 KEVUN |
| Aircraft | A319/M-SDE3FGHIRWY/LB1 |
Departure
| Time | 2026-05-06 04:41 |
|---|---|
| Airport | Congonhas–Deputado Freitas Nobre Airport (SBSP) |
Arrival
| Time | 2026-05-06 05:19 |
|---|---|
| Airport | Santos Dumont Airport (SBRJ) |
| Time | Latitude | Longitude | Altitude | Speed | Heading |
|---|---|---|---|---|---|
| 2026-05-06 04:33 | -23.62512 | -46.65968 | 2600 ft | 0 kts | 237° |
| 2026-05-06 04:35 | -23.62499 | -46.65946 | 2601 ft | 4 kts | 243° |
| 2026-05-06 04:35 | -23.62493 | -46.65925 | 2601 ft | 4 kts | 309° |
| 2026-05-06 04:36 | -23.62509 | -46.65911 | 2601 ft | 1 kts | 327° |
| 2026-05-06 04:36 | -23.62510 | -46.65911 | 2601 ft | 0 kts | 327° |
| 2026-05-06 04:38 | -23.62503 | -46.65916 | 2601 ft | 3 kts | 328° |
| 2026-05-06 04:38 | -23.62471 | -46.65921 | 2601 ft | 7 kts | 350° |
| 2026-05-06 04:38 | -23.62402 | -46.65938 | 2601 ft | 13 kts | 338° |
| 2026-05-06 04:39 | -23.62320 | -46.65994 | 2600 ft | 14 kts | 327° |
| 2026-05-06 04:39 | -23.62253 | -46.66040 | 2600 ft | 13 kts | 327° |
| 2026-05-06 04:39 | -23.62157 | -46.66100 | 2599 ft | 14 kts | 327° |
| 2026-05-06 04:39 | -23.62095 | -46.66138 | 2595 ft | 6 kts | 341° |
| 2026-05-06 04:40 | -23.62043 | -46.66115 | 2587 ft | 13 kts | 58° |
| 2026-05-06 04:40 | -23.62069 | -46.66061 | 2592 ft | 7 kts | 149° |
| 2026-05-06 04:40 | -23.62076 | -46.66056 | 2601 ft | 6 kts | 149° |
| 2026-05-06 04:40 | -23.62319 | -46.65889 | 2601 ft | 85 kts | 147° |
| 2026-05-06 04:41 | -23.63034 | -46.65391 | 2669 ft | 149 kts | 147° |
| 2026-05-06 04:41 | -23.63894 | -46.64793 | 3364 ft | 147 kts | 146° |
| 2026-05-06 04:41 | -23.64708 | -46.64046 | 3617 ft | 163 kts | 120° |
| 2026-05-06 04:41 | -23.65232 | -46.62857 | 3855 ft | 185 kts | 114° |
| 2026-05-06 04:42 | -23.65852 | -46.61543 | 4168 ft | 206 kts | 117° |
| 2026-05-06 04:42 | -23.66592 | -46.60075 | 4465 ft | 233 kts | 118° |
| 2026-05-06 04:42 | -23.67420 | -46.58449 | 4907 ft | 257 kts | 118° |
| 2026-05-06 04:42 | -23.68307 | -46.56711 | 5667 ft | 266 kts | 118° |
| 2026-05-06 04:43 | -23.69217 | -46.54935 | 6507 ft | 271 kts | 118° |
| 2026-05-06 04:43 | -23.70140 | -46.53127 | 7353 ft | 276 kts | 118° |
| 2026-05-06 04:43 | -23.71058 | -46.51273 | 8203 ft | 279 kts | 115° |
| 2026-05-06 04:43 | -23.71656 | -46.49259 | 9050 ft | 282 kts | 100° |
| 2026-05-06 04:44 | -23.71771 | -46.47108 | 9861 ft | 288 kts | 85° |
| 2026-05-06 04:44 | -23.71476 | -46.44918 | 10510 ft | 299 kts | 81° |
| 2026-05-06 04:44 | -23.71135 | -46.42597 | 10842 ft | 318 kts | 82° |
| 2026-05-06 04:44 | -23.70788 | -46.40182 | 11447 ft | 326 kts | 82° |
| 2026-05-06 04:45 | -23.70436 | -46.37720 | 12119 ft | 330 kts | 82° |
| 2026-05-06 04:45 | -23.70082 | -46.35231 | 12815 ft | 334 kts | 82° |
| 2026-05-06 04:45 | -23.69726 | -46.32715 | 13488 ft | 338 kts | 82° |
| 2026-05-06 04:45 | -23.69367 | -46.30170 | 14150 ft | 341 kts | 83° |
| 2026-05-06 04:46 | -23.69003 | -46.27595 | 14719 ft | 345 kts | 82° |
| 2026-05-06 04:46 | -23.68634 | -46.24990 | 15279 ft | 350 kts | 82° |
| 2026-05-06 04:46 | -23.68261 | -46.22356 | 15836 ft | 354 kts | 82° |
| 2026-05-06 04:46 | -23.67880 | -46.19687 | 16390 ft | 358 kts | 82° |
| 2026-05-06 04:47 | -23.67493 | -46.16992 | 16927 ft | 362 kts | 82° |
| 2026-05-06 04:47 | -23.67103 | -46.14296 | 17471 ft | 366 kts | 82° |
| 2026-05-06 04:47 | -23.66701 | -46.11541 | 17992 ft | 371 kts | 82° |
| 2026-05-06 04:47 | -23.66297 | -46.08750 | 18525 ft | 374 kts | 82° |
| 2026-05-06 04:48 | -23.65893 | -46.05932 | 18996 ft | 378 kts | 82° |
| 2026-05-06 04:48 | -23.65484 | -46.03081 | 19459 ft | 381 kts | 82° |
| 2026-05-06 04:48 | -23.65074 | -46.00214 | 19937 ft | 385 kts | 82° |
| 2026-05-06 04:48 | -23.64658 | -45.97319 | 20423 ft | 388 kts | 82° |
| 2026-05-06 04:49 | -23.64238 | -45.94403 | 20922 ft | 391 kts | 82° |
| 2026-05-06 04:49 | -23.63815 | -45.91458 | 21410 ft | 394 kts | 82° |
| 2026-05-06 04:49 | -23.63385 | -45.88497 | 21890 ft | 397 kts | 82° |
| 2026-05-06 04:49 | -23.62950 | -45.85507 | 22368 ft | 401 kts | 82° |
| 2026-05-06 04:50 | -23.62513 | -45.82492 | 22852 ft | 404 kts | 82° |
| 2026-05-06 04:50 | -23.62072 | -45.79451 | 23331 ft | 408 kts | 82° |
| 2026-05-06 04:50 | -23.61628 | -45.76392 | 23801 ft | 411 kts | 82° |
| 2026-05-06 04:50 | -23.61180 | -45.73298 | 24214 ft | 414 kts | 83° |
| 2026-05-06 04:51 | -23.60727 | -45.70180 | 24630 ft | 418 kts | 83° |
| 2026-05-06 04:51 | -23.60272 | -45.67042 | 25008 ft | 421 kts | 83° |
| 2026-05-06 04:51 | -23.59811 | -45.63879 | 25144 ft | 423 kts | 83° |
| 2026-05-06 04:51 | -23.59350 | -45.60754 | 25183 ft | 414 kts | 83° |
| 2026-05-06 04:52 | -23.58889 | -45.57658 | 25183 ft | 415 kts | 83° |
| 2026-05-06 04:52 | -23.58426 | -45.54558 | 25182 ft | 411 kts | 83° |
| 2026-05-06 04:52 | -23.57968 | -45.51466 | 25185 ft | 414 kts | 83° |
| 2026-05-06 04:52 | -23.57513 | -45.48374 | 25188 ft | 415 kts | 83° |
| 2026-05-06 04:53 | -23.57027 | -45.45266 | 25190 ft | 415 kts | 81° |
| 2026-05-06 04:53 | -23.56443 | -45.42186 | 25190 ft | 416 kts | 79° |
| 2026-05-06 04:53 | -23.55785 | -45.39114 | 25191 ft | 416 kts | 78° |
| 2026-05-06 04:53 | -23.55093 | -45.36049 | 25188 ft | 417 kts | 78° |
| 2026-05-06 04:54 | -23.54399 | -45.32985 | 25184 ft | 416 kts | 78° |
| 2026-05-06 04:54 | -23.53717 | -45.29921 | 25189 ft | 416 kts | 78° |
| 2026-05-06 04:54 | -23.53048 | -45.26851 | 25191 ft | 416 kts | 78° |
| 2026-05-06 04:54 | -23.52394 | -45.23779 | 25189 ft | 416 kts | 79° |
| 2026-05-06 04:55 | -23.51748 | -45.20710 | 25190 ft | 416 kts | 79° |
| 2026-05-06 04:55 | -23.51102 | -45.17633 | 25181 ft | 416 kts | 79° |
| 2026-05-06 04:55 | -23.50455 | -45.14568 | 25176 ft | 416 kts | 79° |
| 2026-05-06 04:55 | -23.49803 | -45.11494 | 25173 ft | 416 kts | 78° |
| 2026-05-06 04:56 | -23.49148 | -45.08428 | 25174 ft | 416 kts | 78° |
| 2026-05-06 04:56 | -23.48487 | -45.05356 | 25169 ft | 416 kts | 78° |
| 2026-05-06 04:56 | -23.47828 | -45.02294 | 25166 ft | 416 kts | 78° |
| 2026-05-06 04:56 | -23.47170 | -44.99234 | 25165 ft | 416 kts | 78° |
| 2026-05-06 04:57 | -23.46512 | -44.96170 | 25161 ft | 416 kts | 78° |
| 2026-05-06 04:57 | -23.45849 | -44.93105 | 25176 ft | 416 kts | 78° |
| 2026-05-06 04:57 | -23.45175 | -44.90044 | 25166 ft | 415 kts | 78° |
| 2026-05-06 04:57 | -23.44494 | -44.86989 | 25167 ft | 416 kts | 78° |
| 2026-05-06 04:58 | -23.43807 | -44.83932 | 25161 ft | 415 kts | 78° |
| 2026-05-06 04:58 | -23.43131 | -44.80913 | 25161 ft | 416 kts | 78° |
| 2026-05-06 04:58 | -23.42439 | -44.77815 | 25175 ft | 416 kts | 78° |
| 2026-05-06 04:58 | -23.41770 | -44.74800 | 25123 ft | 417 kts | 78° |
| 2026-05-06 04:59 | -23.41082 | -44.71701 | 24284 ft | 432 kts | 77° |
| 2026-05-06 04:59 | -23.40346 | -44.68384 | 23127 ft | 464 kts | 77° |
| 2026-05-06 04:59 | -23.39578 | -44.64930 | 21859 ft | 475 kts | 77° |
| 2026-05-06 04:59 | -23.38793 | -44.61421 | 21077 ft | 476 kts | 77° |
| 2026-05-06 05:00 | -23.38009 | -44.57924 | 20519 ft | 474 kts | 77° |
| 2026-05-06 05:00 | -23.37228 | -44.54451 | 19916 ft | 470 kts | 77° |
| 2026-05-06 05:00 | -23.36454 | -44.51018 | 19310 ft | 466 kts | 77° |
| 2026-05-06 05:00 | -23.35691 | -44.47628 | 18869 ft | 452 kts | 77° |
| 2026-05-06 05:01 | -23.34964 | -44.44396 | 18320 ft | 432 kts | 77° |
| 2026-05-06 05:01 | -23.34069 | -44.41331 | 17839 ft | 415 kts | 66° |
| 2026-05-06 05:01 | -23.32888 | -44.38555 | 17621 ft | 393 kts | 65° |
| 2026-05-06 05:01 | -23.31761 | -44.35923 | 17236 ft | 377 kts | 65° |
| 2026-05-06 05:02 | -23.30665 | -44.33365 | 16602 ft | 370 kts | 65° |
| 2026-05-06 05:02 | -23.29586 | -44.30849 | 15960 ft | 364 kts | 66° |
| 2026-05-06 05:02 | -23.28522 | -44.28372 | 15306 ft | 359 kts | 66° |
| 2026-05-06 05:02 | -23.27458 | -44.25890 | 14617 ft | 365 kts | 66° |
| 2026-05-06 05:03 | -23.26385 | -44.23394 | 14241 ft | 362 kts | 66° |
| 2026-05-06 05:03 | -23.25318 | -44.20915 | 13774 ft | 360 kts | 66° |
| 2026-05-06 05:03 | -23.24265 | -44.18468 | 13354 ft | 356 kts | 66° |
| 2026-05-06 05:03 | -23.23219 | -44.16042 | 12879 ft | 354 kts | 66° |
| 2026-05-06 05:04 | -23.22175 | -44.13629 | 12433 ft | 351 kts | 66° |
| 2026-05-06 05:04 | -23.21138 | -44.11234 | 11995 ft | 349 kts | 66° |
| 2026-05-06 05:04 | -23.20109 | -44.08856 | 11564 ft | 346 kts | 66° |
| 2026-05-06 05:04 | -23.19079 | -44.06501 | 11151 ft | 344 kts | 65° |
| 2026-05-06 05:05 | -23.18029 | -44.04185 | 10808 ft | 339 kts | 64° |
| 2026-05-06 05:05 | -23.16984 | -44.01927 | 10593 ft | 330 kts | 64° |
| 2026-05-06 05:05 | -23.15962 | -43.99730 | 10431 ft | 321 kts | 64° |
| 2026-05-06 05:05 | -23.14990 | -43.97589 | 10313 ft | 311 kts | 65° |
| 2026-05-06 05:06 | -23.14080 | -43.95496 | 10200 ft | 302 kts | 66° |
| 2026-05-06 05:06 | -23.13211 | -43.93453 | 10050 ft | 296 kts | 66° |
| 2026-05-06 05:06 | -23.12358 | -43.91433 | 9849 ft | 292 kts | 66° |
| 2026-05-06 05:06 | -23.11517 | -43.89441 | 9684 ft | 290 kts | 66° |
| 2026-05-06 05:07 | -23.10674 | -43.87453 | 9534 ft | 289 kts | 66° |
| 2026-05-06 05:07 | -23.09831 | -43.85472 | 9382 ft | 288 kts | 66° |
| 2026-05-06 05:07 | -23.08993 | -43.83506 | 9235 ft | 288 kts | 66° |
| 2026-05-06 05:07 | -23.08152 | -43.81538 | 9087 ft | 288 kts | 66° |
| 2026-05-06 05:08 | -23.07307 | -43.79568 | 8940 ft | 287 kts | 66° |
| 2026-05-06 05:08 | -23.06468 | -43.77609 | 8783 ft | 285 kts | 66° |
| 2026-05-06 05:08 | -23.05632 | -43.75655 | 8629 ft | 285 kts | 66° |
| 2026-05-06 05:08 | -23.04796 | -43.73709 | 8486 ft | 284 kts | 66° |
| 2026-05-06 05:09 | -23.03960 | -43.71764 | 8328 ft | 284 kts | 66° |
| 2026-05-06 05:09 | -23.03128 | -43.69829 | 8183 ft | 283 kts | 66° |
| 2026-05-06 05:09 | -23.02284 | -43.67882 | 7821 ft | 287 kts | 66° |
| 2026-05-06 05:09 | -23.01721 | -43.66593 | 7683 ft | 285 kts | 66° |
| 2026-05-06 05:10 | -23.00869 | -43.64654 | 7377 ft | 285 kts | 65° |
| 2026-05-06 05:10 | -23.00018 | -43.62718 | 7136 ft | 284 kts | 65° |
| 2026-05-06 05:10 | -22.99175 | -43.60794 | 6916 ft | 282 kts | 65° |
| 2026-05-06 05:10 | -22.98337 | -43.58889 | 6728 ft | 279 kts | 65° |
| 2026-05-06 05:11 | -22.97502 | -43.56994 | 6555 ft | 277 kts | 65° |
| 2026-05-06 05:11 | -22.96672 | -43.55112 | 6385 ft | 276 kts | 65° |
| 2026-05-06 05:11 | -22.95845 | -43.53236 | 6185 ft | 275 kts | 65° |
| 2026-05-06 05:11 | -22.95019 | -43.51366 | 6041 ft | 275 kts | 65° |
| 2026-05-06 05:12 | -22.94201 | -43.49492 | 5818 ft | 275 kts | 66° |
| 2026-05-06 05:12 | -22.93398 | -43.47606 | 5564 ft | 275 kts | 66° |
| 2026-05-06 05:12 | -22.92606 | -43.45725 | 5321 ft | 273 kts | 66° |
| 2026-05-06 05:12 | -22.91820 | -43.43850 | 5080 ft | 272 kts | 66° |
| 2026-05-06 05:13 | -22.91042 | -43.42001 | 4843 ft | 266 kts | 66° |
| 2026-05-06 05:13 | -22.90280 | -43.40201 | 4608 ft | 261 kts | 66° |
| 2026-05-06 05:13 | -22.89533 | -43.38438 | 4382 ft | 255 kts | 66° |
| 2026-05-06 05:13 | -22.88799 | -43.36705 | 4155 ft | 250 kts | 67° |
| 2026-05-06 05:14 | -22.88367 | -43.34916 | 3939 ft | 244 kts | 87° |
| 2026-05-06 05:14 | -22.88473 | -43.33088 | 3633 ft | 242 kts | 96° |
| 2026-05-06 05:14 | -22.88649 | -43.31280 | 3312 ft | 240 kts | 96° |
| 2026-05-06 05:14 | -22.88819 | -43.29511 | 3022 ft | 234 kts | 95° |
| 2026-05-06 05:15 | -22.88982 | -43.27783 | 2741 ft | 225 kts | 95° |
| 2026-05-06 05:15 | -22.89271 | -43.26152 | 2450 ft | 217 kts | 111° |
| 2026-05-06 05:15 | -22.89910 | -43.24704 | 2172 ft | 209 kts | 115° |
| 2026-05-06 05:15 | -22.90522 | -43.23340 | 1924 ft | 194 kts | 115° |
| 2026-05-06 05:16 | -22.91093 | -43.22061 | 1654 ft | 183 kts | 115° |
| 2026-05-06 05:16 | -22.91624 | -43.20878 | 1435 ft | 163 kts | 114° |
| 2026-05-06 05:16 | -22.92266 | -43.19963 | 1285 ft | 148 kts | 136° |
| 2026-05-06 05:16 | -22.93120 | -43.19390 | 1147 ft | 140 kts | 150° |
| 2026-05-06 05:17 | -22.93983 | -43.18900 | 979 ft | 138 kts | 153° |
| 2026-05-06 05:17 | -22.94798 | -43.18399 | 739 ft | 132 kts | 139° |
| 2026-05-06 05:17 | -22.95101 | -43.17515 | 674 ft | 132 kts | 72° |
| 2026-05-06 05:17 | -22.94531 | -43.16764 | 757 ft | 134 kts | 41° |
| 2026-05-06 05:18 | -22.93715 | -43.16325 | 462 ft | 131 kts | 15° |
| 2026-05-06 05:18 | -22.92812 | -43.16205 | 258 ft | 131 kts | 2° |
| 2026-05-06 05:18 | -22.91900 | -43.16228 | 86 ft | 130 kts | 358° |
| 2026-05-06 05:18 | -22.91041 | -43.16284 | 22 ft | 107 kts | 357° |
| 2026-05-06 05:19 | -22.90577 | -43.16313 | 26 ft | 37 kts | 356° |
| 2026-05-06 05:19 | -22.90489 | -43.16378 | 24 ft | 14 kts | 266° |
| 2026-05-06 05:19 | -22.90498 | -43.16481 | 23 ft | 14 kts | 265° |
| 2026-05-06 05:19 | -22.90518 | -43.16555 | 22 ft | 10 kts | 211° |
| 2026-05-06 05:20 | -22.90601 | -43.16552 | 22 ft | 13 kts | 175° |
| 2026-05-06 05:20 | -22.90690 | -43.16547 | 22 ft | 14 kts | 176° |
| 2026-05-06 05:20 | -22.90791 | -43.16542 | 22 ft | 14 kts | 182° |
| 2026-05-06 05:20 | -22.90893 | -43.16547 | 25 ft | 14 kts | 176° |
| 2026-05-06 05:21 | -22.90965 | -43.16542 | 25 ft | 9 kts | 176° |
| 2026-05-06 05:21 | -22.91030 | -43.16538 | 22 ft | 8 kts | 176° |
| 2026-05-06 05:21 | -22.91074 | -43.16534 | 22 ft | 8 kts | 168° |
| 2026-05-06 05:21 | -22.91144 | -43.16518 | 24 ft | 12 kts | 174° |
| 2026-05-06 05:22 | -22.91225 | -43.16513 | 25 ft | 11 kts | 174° |
| 2026-05-06 05:22 | -22.91276 | -43.16516 | 22 ft | 2 kts | 239° |
| 2026-05-06 05:22 | -22.91281 | -43.16555 | 24 ft | 5 kts | 265° |
| 2026-05-06 05:22 | -22.91281 | -43.16578 | 22 ft | 2 kts | 268° |
| 2026-05-06 05:23 | -22.91282 | -43.16581 | 22 ft | 0 kts | 268° |